Fort Hunter, New York
Current Conditions -  °F | °C
As of 6:15 PM on Friday 19 Dec 2014 (Local Time) from KNY0 Reporting Station
Overcast Overcast  
Wind Chill: 12°   Ceiling: 1600
Heat Index: 23°   Visibility: 10mi
Dew Point: 17°   Wind: 10mph
Humidity: 79%   Direction: 310°NW
Pressure: 30.13"   Gusts: 17mph
Location:  42.94°N, 74.28°W
Report Text: KNY0 192315Z AUTO 31009G15KT 10SM OVC016 M05/M08 A3013 RMK AO2 T10521083
Loading
Personal Weather Stations






























Interactive Weather Map New forecast layout! Learn more

10-Day Weather Forecast

Advertisements
Track Severe Weather on mobile